CheckWX is a tool to help pilots better visualize weather data.  It is not intended as a substitute for an official pre-flight weather briefing.

06:32:03 UTC

KILG METAR
New Castle Airport
Wilmington, Delaware, USA
Current

41 mins ago

KILG 310551Z AUTO 31004KT 10SM BKN048 OVC085 09/03 A2997 RMK AO2 SLP148 T00890033 10133 20072 58003
Observed
Mar-31 @ 05:51 UTC
Wind
  • 310° at 4 KTS
Visibility
10 SM
Flight Rules
VFR
Cloud Levels
  • Broken at 4,800' AGL
  • Overcast at 8,500' AGL
Temperature
C / 48°F
Dewpoint
C / 37°F
Humidity
66%
Altimeter
29.97" Hg
Pressure
1014.92 hPa
Previous

2 hours ago

KILG 310451Z AUTO 35006KT 10SM BKN090 09/03 A2996 RMK AO2 SLP146 T00890028 401780072
Observed
Mar-31 @ 04:51 UTC
Wind
  • 350° at 6 KTS
Visibility
10 SM
Flight Rules
VFR
Cloud Levels
  • Broken at 9,000' AGL
Temperature
C / 48°F
Dewpoint
C / 37°F
Humidity
66%
Altimeter
29.96" Hg
Pressure
1014.52 hPa
Previous

4 hours ago

KILG 310251Z 35008KT 10SM CLR 10/03 A2998 RMK AO2 SLP150 T01000028 50009
Observed
Mar-31 @ 02:51 UTC
Wind
  • 350° at 8 KTS
Visibility
10 SM
Flight Rules
VFR
Cloud Levels
  • Clear skies
Temperature
10°C / 50°F
Dewpoint
C / 37°F
Humidity
62%
Altimeter
29.98" Hg
Pressure
1015.22 hPa